createdAt,value
2022-08-03T00:00:41.847Z,59.05
2022-08-03T00:01:40.836Z,59.25
2022-08-03T00:02:40.868Z,59.38
2022-08-03T00:03:40.837Z,59.85
2022-08-03T00:04:40.817Z,60.15
2022-08-03T00:05:40.780Z,59.95
2022-08-03T00:06:41.797Z,59.88
2022-08-03T00:07:40.747Z,59.88
2022-08-03T00:08:40.766Z,59.98
2022-08-03T00:09:40.725Z,59.68
2022-08-03T00:10:40.726Z,60.28
2022-08-03T00:11:40.713Z,60.18
2022-08-03T00:12:40.725Z,60.58
2022-08-03T00:13:40.683Z,60.58
2022-08-03T00:14:40.672Z,60.78
2022-08-03T00:15:40.717Z,60.88
2022-08-03T00:16:40.676Z,60.78
2022-08-03T00:17:53.570Z,60.88
2022-08-03T00:18:41.676Z,60.98
2022-08-03T00:19:40.605Z,60.88
2022-08-03T00:20:40.595Z,60.78
2022-08-03T00:21:40.576Z,60.58
2022-08-03T00:22:40.578Z,60.61
2022-08-03T00:23:51.238Z,61.11
2022-08-03T00:24:41.598Z,60.91
2022-08-03T00:25:40.532Z,60.81
2022-08-03T00:26:40.528Z,61.01
2022-08-03T00:27:40.503Z,60.71
2022-08-03T00:28:40.508Z,61.01
2022-08-03T00:29:59.509Z,61.11
2022-08-03T00:30:41.468Z,61.21
2022-08-03T00:31:59.181Z,61.21
2022-08-03T00:32:44.251Z,61.11
2022-08-03T00:33:58.888Z,61.41
2022-08-03T00:34:57.138Z,61.31
2022-08-03T00:35:50.631Z,61.31
2022-08-03T00:36:41.431Z,61.21
2022-08-03T00:37:41.549Z,61.01
2022-08-03T00:38:40.365Z,61.21
2022-08-03T00:39:40.343Z,61.31
2022-08-03T00:40:40.346Z,61.31
2022-08-03T00:41:40.317Z,61.41
2022-08-03T00:42:40.324Z,61.71
2022-08-03T00:43:40.307Z,61.61
2022-08-03T00:44:40.295Z,61.21
2022-08-03T00:45:40.314Z,61.71
2022-08-03T00:46:40.256Z,61.61
2022-08-03T00:47:40.246Z,61.41
2022-08-03T00:48:40.237Z,61.11
2022-08-03T00:49:41.119Z,61.41
2022-08-03T00:50:40.218Z,61.31
2022-08-03T00:51:40.197Z,61.31
2022-08-03T00:52:40.203Z,61.31
2022-08-03T00:53:40.167Z,61.31
2022-08-03T00:54:40.181Z,61.21
2022-08-03T00:55:40.141Z,61.41
2022-08-03T00:56:40.156Z,61.31
2022-08-03T00:57:41.125Z,61.41
2022-08-03T00:58:40.124Z,61.11
2022-08-03T00:59:40.116Z,61.51
2022-08-03T01:00:40.086Z,61.41
2022-08-03T01:01:40.126Z,61.21
2022-08-03T01:02:40.103Z,60.91
2022-08-03T01:03:40.175Z,60.91
2022-08-03T01:04:40.030Z,61.11
2022-08-03T01:05:40.022Z,61.31
2022-08-03T01:06:40.024Z,61.21
2022-08-03T01:07:40.082Z,61.21
2022-08-03T01:08:39.985Z,61.01
2022-08-03T01:09:40.022Z,61.11
2022-08-03T01:10:39.956Z,61.11
2022-08-03T01:11:59.844Z,61.51
2022-08-03T01:12:40.944Z,61.51
2022-08-03T01:14:01.661Z,61.61
2022-08-03T01:14:40.904Z,61.61
2022-08-03T01:15:39.891Z,61.21
2022-08-03T01:16:39.883Z,61.21
2022-08-03T01:17:39.884Z,61.21
2022-08-03T01:18:39.862Z,61.01
2022-08-03T01:19:39.873Z,61.11
2022-08-03T01:20:39.833Z,61.21
2022-08-03T01:21:39.823Z,61.51
2022-08-03T01:22:39.824Z,61.41
2022-08-03T01:23:39.792Z,61.71
2022-08-03T01:24:40.944Z,61.71
2022-08-03T01:25:39.761Z,61.91
2022-08-03T01:26:39.762Z,61.81
2022-08-03T01:27:39.742Z,61.91
2022-08-03T01:28:39.752Z,61.81
2022-08-03T01:29:39.751Z,61.71
2022-08-03T01:30:40.424Z,61.31
2022-08-03T01:32:59.812Z,61.01
2022-08-03T01:33:03.041Z,61.11
2022-08-03T01:33:40.699Z,61.31
2022-08-03T01:34:39.657Z,61.31
2022-08-03T01:35:39.680Z,61.41
2022-08-03T01:36:39.631Z,61.41
2022-08-03T01:37:39.653Z,61.41
2022-08-03T01:38:39.621Z,61.51
2022-08-03T01:39:39.589Z,61.31
2022-08-03T01:40:39.594Z,60.91
2022-08-03T01:41:39.602Z,61.31
2022-08-03T01:42:39.562Z,61.31
2022-08-03T01:44:27.043Z,61.31
2022-08-03T01:44:40.540Z,61.11
2022-08-03T01:45:39.515Z,61.11
2022-08-03T01:46:39.499Z,61.11
2022-08-03T01:47:39.490Z,61.01
2022-08-03T01:48:39.483Z,60.91
2022-08-03T01:49:39.517Z,60.81
2022-08-03T01:50:39.451Z,60.91
2022-08-03T01:52:03.498Z,60.91
2022-08-03T01:52:40.440Z,60.61
2022-08-03T01:53:39.419Z,60.81
2022-08-03T01:54:39.423Z,60.81
2022-08-03T01:55:39.445Z,60.11
2022-08-03T01:56:39.383Z,60.61
2022-08-03T01:58:05.179Z,60.01
2022-08-03T01:58:40.361Z,60.11
2022-08-03T01:59:39.342Z,60.61
2022-08-03T02:00:39.401Z,60.31
2022-08-03T02:02:31.937Z,60.11
2022-08-03T02:02:40.775Z,60.11
2022-08-03T02:04:00.085Z,60.21
2022-08-03T02:04:40.292Z,60.21
2022-08-03T02:05:39.281Z,60.11
2022-08-03T02:07:02.907Z,59.91
2022-08-03T02:07:40.413Z,60.11
2022-08-03T02:08:39.230Z,60.41
2022-08-03T02:09:39.208Z,60.01
2022-08-03T02:10:39.208Z,60.21
2022-08-03T02:11:39.408Z,60.11
2022-08-03T02:12:39.199Z,60.01
2022-08-03T02:13:39.221Z,60.11
2022-08-03T02:14:39.168Z,59.50
2022-08-03T02:15:39.148Z,59.81
2022-08-03T02:16:39.130Z,59.70
2022-08-03T02:17:40.343Z,59.48
2022-08-03T02:18:39.113Z,59.41
2022-08-03T02:19:39.081Z,59.91
2022-08-03T02:20:39.094Z,59.88
2022-08-03T02:21:56.285Z,59.88
2022-08-03T02:22:40.099Z,59.68
2022-08-03T02:23:39.348Z,59.91
2022-08-03T02:24:39.029Z,59.88
2022-08-03T02:25:39.010Z,59.81
2022-08-03T02:26:39.000Z,60.11
2022-08-03T02:27:43.339Z,59.91
2022-08-03T02:28:39.009Z,60.01
2022-08-03T02:29:41.013Z,60.11
2022-08-03T02:30:38.957Z,60.11
2022-08-03T02:31:38.931Z,59.91
2022-08-03T02:32:38.940Z,59.81
2022-08-03T02:33:38.936Z,59.91
2022-08-03T02:34:38.899Z,59.81
2022-08-03T02:35:38.986Z,59.91
2022-08-03T02:36:38.864Z,60.11
2022-08-03T02:37:38.919Z,59.81
2022-08-03T02:38:38.855Z,59.91
2022-08-03T02:39:38.827Z,59.91
2022-08-03T02:40:38.820Z,59.81
2022-08-03T02:41:38.808Z,59.70
2022-08-03T02:42:38.817Z,59.70
2022-08-03T02:43:40.258Z,59.81
2022-08-03T02:44:39.769Z,59.81
2022-08-03T02:45:42.551Z,59.91
2022-08-03T02:46:39.748Z,60.11
2022-08-03T02:47:54.058Z,60.11
2022-08-03T02:48:39.724Z,60.11
2022-08-03T02:49:51.025Z,59.81
2022-08-03T02:50:39.771Z,59.91
2022-08-03T02:51:38.679Z,59.50
2022-08-03T02:52:38.675Z,59.81
2022-08-03T02:53:38.678Z,59.61
2022-08-03T02:54:38.646Z,59.50
2022-08-03T02:55:43.156Z,59.41
2022-08-03T02:56:39.634Z,59.50
2022-08-03T02:57:38.606Z,59.31
2022-08-03T02:58:38.596Z,58.91
2022-08-03T02:59:38.641Z,59.33
2022-08-03T03:00:38.613Z,59.13
2022-08-03T03:01:38.556Z,59.33
2022-08-03T03:02:38.548Z,58.94
2022-08-03T03:03:44.744Z,59.44
2022-08-03T03:04:43.168Z,59.13
2022-08-03T03:05:53.329Z,59.33
2022-08-03T03:06:39.517Z,59.44
2022-08-03T03:07:51.835Z,59.53
2022-08-03T03:08:39.475Z,59.44
2022-08-03T03:09:41.828Z,59.74
2022-08-03T03:10:38.532Z,59.94
2022-08-03T03:11:38.441Z,59.33
2022-08-03T03:12:38.438Z,59.44
2022-08-03T03:13:38.417Z,59.44
2022-08-03T03:14:38.415Z,59.64
2022-08-03T03:15:38.392Z,59.53
2022-08-03T03:16:38.436Z,59.53
2022-08-03T03:17:38.359Z,59.46
2022-08-03T03:18:38.346Z,59.53
2022-08-03T03:19:38.333Z,59.33
2022-08-03T03:20:38.362Z,59.23
2022-08-03T03:21:38.305Z,59.33
2022-08-03T03:22:38.294Z,59.23
2022-08-03T03:23:38.333Z,59.23
2022-08-03T03:24:38.256Z,59.23
2022-08-03T03:25:38.280Z,59.13
2022-08-03T03:26:42.280Z,59.13
2022-08-03T03:27:38.226Z,59.13
2022-08-03T03:28:38.262Z,59.03
2022-08-03T03:29:39.479Z,59.23
2022-08-03T03:30:38.198Z,59.23
2022-08-03T03:31:38.175Z,59.33
2022-08-03T03:32:38.299Z,59.23
2022-08-03T03:33:38.209Z,59.33
2022-08-03T03:34:38.155Z,59.33
2022-08-03T03:35:39.018Z,59.33
2022-08-03T03:36:38.112Z,59.33
2022-08-03T03:37:38.092Z,59.33
2022-08-03T03:38:38.145Z,59.46
2022-08-03T03:39:38.073Z,59.77
2022-08-03T03:40:38.046Z,59.94
2022-08-03T03:41:38.044Z,59.83
2022-08-03T03:42:38.025Z,60.33
2022-08-03T03:43:38.034Z,60.33
2022-08-03T03:44:38.013Z,60.64
2022-08-03T03:45:38.002Z,60.53
2022-08-03T03:46:37.989Z,60.53
2022-08-03T03:47:37.980Z,60.33
2022-08-03T03:48:37.981Z,60.53
2022-08-03T03:49:38.031Z,60.77
2022-08-03T03:50:37.925Z,60.77
2022-08-03T03:51:37.919Z,60.66
2022-08-03T03:52:37.904Z,60.97
2022-08-03T03:53:37.899Z,61.07
2022-08-03T03:54:38.064Z,60.86
2022-08-03T03:55:37.852Z,61.07
2022-08-03T03:56:38.883Z,60.97
2022-08-03T03:57:37.824Z,60.47
2022-08-03T03:58:37.843Z,60.57
2022-08-03T03:59:37.811Z,60.66
2022-08-03T04:00:37.889Z,60.66
2022-08-03T04:01:37.777Z,60.57
2022-08-03T04:02:37.792Z,60.77
2022-08-03T04:03:37.770Z,61.24
2022-08-03T04:04:37.745Z,61.24
2022-08-03T04:05:37.734Z,61.54
2022-08-03T04:06:37.724Z,61.14
2022-08-03T04:07:37.713Z,61.14
2022-08-03T04:08:37.681Z,60.84
2022-08-03T04:09:37.826Z,60.94
2022-08-03T04:10:37.653Z,61.04
2022-08-03T04:11:37.647Z,60.64
2022-08-03T04:12:37.633Z,60.84
2022-08-03T04:13:38.623Z,60.64
2022-08-03T04:14:37.675Z,60.74
2022-08-03T04:15:37.592Z,60.74
2022-08-03T04:16:41.891Z,60.53
2022-08-03T04:17:38.599Z,60.94
2022-08-03T04:18:37.593Z,60.94
2022-08-03T04:19:37.800Z,60.14
2022-08-03T04:20:37.572Z,60.74
2022-08-03T04:21:37.531Z,60.94
2022-08-03T04:22:37.545Z,61.01
2022-08-03T04:23:37.541Z,60.91
2022-08-03T04:24:37.516Z,60.81
2022-08-03T04:25:37.464Z,60.21
2022-08-03T04:26:37.443Z,60.41
2022-08-03T04:27:37.441Z,59.91
2022-08-03T04:28:37.425Z,60.11
2022-08-03T04:29:38.694Z,59.70
2022-08-03T04:30:38.406Z,60.21
2022-08-03T04:31:37.414Z,60.31
2022-08-03T04:32:37.377Z,60.61
2022-08-03T04:33:37.423Z,60.61
2022-08-03T04:34:37.343Z,59.70
2022-08-03T04:35:58.632Z,59.70
2022-08-03T04:36:38.313Z,59.20
2022-08-03T04:37:37.304Z,59.31
2022-08-03T04:38:37.278Z,59.61
2022-08-03T04:39:37.298Z,59.81
2022-08-03T04:40:37.259Z,60.41
2022-08-03T04:42:08.277Z,59.81
2022-08-03T04:42:38.242Z,59.61
2022-08-03T04:43:37.248Z,58.81
2022-08-03T04:44:37.213Z,59.00
2022-08-03T04:45:37.199Z,59.11
2022-08-03T04:46:37.177Z,58.78
2022-08-03T04:47:37.196Z,58.98
2022-08-03T04:48:37.156Z,59.08
2022-08-03T04:49:37.287Z,58.58
2022-08-03T04:50:37.131Z,58.78
2022-08-03T04:51:37.128Z,59.28
2022-08-03T04:52:37.113Z,59.08
2022-08-03T04:53:37.284Z,58.78
2022-08-03T04:54:37.081Z,58.58
2022-08-03T04:55:37.064Z,58.55
2022-08-03T04:56:37.068Z,58.95
2022-08-03T04:57:37.039Z,58.55
2022-08-03T04:58:37.040Z,58.25
2022-08-03T04:59:40.840Z,57.95
2022-08-03T05:00:37.002Z,57.45
2022-08-03T05:01:37.082Z,57.24
2022-08-03T05:02:37.002Z,57.42
2022-08-03T05:03:36.981Z,57.22
2022-08-03T05:04:36.986Z,57.72
2022-08-03T05:05:49.972Z,57.52
2022-08-03T05:06:47.864Z,57.52
2022-08-03T05:07:37.918Z,58.02
2022-08-03T05:08:36.918Z,57.32
2022-08-03T05:09:49.964Z,57.72
2022-08-03T05:10:37.883Z,56.79
2022-08-03T05:11:36.869Z,56.79
2022-08-03T05:12:36.850Z,56.79
2022-08-03T05:13:36.858Z,56.89
2022-08-03T05:14:36.820Z,56.89
2022-08-03T05:15:42.979Z,56.59
2022-08-03T05:16:37.804Z,56.49
2022-08-03T05:17:36.808Z,56.79
2022-08-03T05:20:10.272Z,56.46
2022-08-03T05:21:10.269Z,56.27
2022-08-03T05:22:10.311Z,55.87
2022-08-03T05:23:10.223Z,56.16
2022-08-03T05:24:10.213Z,55.47
2022-08-03T05:25:10.193Z,55.97
2022-08-03T05:26:11.194Z,56.07
2022-08-03T05:27:10.165Z,55.57
2022-08-03T05:28:10.170Z,55.77
2022-08-03T05:29:10.163Z,54.77
2022-08-03T05:30:30.743Z,54.84
2022-08-03T05:31:11.115Z,55.04
2022-08-03T05:32:10.168Z,55.54
2022-08-03T05:33:10.103Z,55.64
2022-08-03T05:34:10.107Z,56.04
2022-08-03T05:36:00.848Z,55.64
2022-08-03T05:36:11.063Z,55.74
2022-08-03T05:37:10.044Z,55.84
2022-08-03T05:38:10.036Z,55.64
2022-08-03T05:39:10.023Z,55.34
2022-08-03T05:40:10.023Z,55.41
2022-08-03T05:41:22.649Z,55.11
2022-08-03T05:42:10.999Z,55.02
2022-08-03T05:43:09.964Z,54.82
2022-08-03T05:44:09.983Z,55.11
2022-08-03T05:45:09.935Z,55.11
2022-08-03T05:46:12.455Z,55.11
2022-08-03T05:47:09.915Z,55.32
2022-08-03T05:48:09.912Z,54.69
2022-08-03T05:49:09.978Z,54.19
2022-08-03T05:50:09.884Z,54.79
2022-08-03T05:51:09.862Z,54.99
2022-08-03T05:52:15.748Z,54.49
2022-08-03T05:53:10.824Z,55.19
2022-08-03T05:54:09.854Z,54.79
2022-08-03T05:55:09.842Z,54.59
2022-08-03T05:56:15.349Z,54.49
2022-08-03T05:57:10.776Z,55.29
2022-08-03T05:58:09.815Z,54.76
2022-08-03T05:59:36.635Z,54.96
2022-08-03T06:00:10.747Z,54.06
2022-08-03T06:01:09.760Z,54.57
2022-08-03T06:02:09.822Z,54.57
2022-08-03T06:03:09.713Z,54.57
2022-08-03T06:04:09.693Z,53.96
2022-08-03T06:05:09.676Z,54.76
2022-08-03T06:06:09.674Z,54.66
2022-08-03T06:07:09.672Z,54.57
2022-08-03T06:08:09.665Z,53.44
2022-08-03T06:09:10.643Z,53.64
2022-08-03T06:10:36.427Z,54.04
2022-08-03T06:11:10.614Z,53.14
2022-08-03T06:12:13.921Z,52.74
2022-08-03T06:13:09.588Z,52.64
2022-08-03T06:14:09.564Z,52.34
2022-08-03T06:15:11.605Z,52.42
2022-08-03T06:16:09.549Z,52.42
2022-08-03T06:17:09.552Z,52.12
2022-08-03T06:18:09.524Z,52.12
2022-08-03T06:19:09.605Z,51.52
2022-08-03T06:20:09.534Z,51.03
2022-08-03T06:21:14.664Z,50.32
2022-08-03T06:22:10.461Z,50.40
2022-08-03T06:23:16.237Z,49.90
2022-08-03T06:24:10.442Z,50.70
2022-08-03T06:25:12.788Z,51.00
2022-08-03T06:26:09.406Z,51.00
2022-08-03T06:27:09.417Z,50.60
2022-08-03T06:28:12.129Z,50.40
2022-08-03T06:29:10.402Z,50.48
2022-08-03T06:30:09.370Z,50.48
2022-08-03T06:31:09.343Z,50.18
2022-08-03T06:32:09.350Z,49.78
2022-08-03T06:33:09.362Z,49.58
2022-08-03T06:34:32.989Z,49.48
2022-08-03T06:35:10.322Z,49.66
2022-08-03T06:36:09.273Z,49.66
2022-08-03T06:37:09.272Z,49.85
2022-08-03T06:38:09.249Z,49.46
2022-08-03T06:39:09.254Z,49.36
2022-08-03T06:40:09.255Z,49.95
2022-08-03T06:41:09.214Z,50.45
2022-08-03T06:42:13.550Z,49.55
2022-08-03T06:43:12.654Z,50.75
2022-08-03T06:44:09.164Z,50.55
2022-08-03T06:45:09.182Z,50.35
2022-08-03T06:46:09.155Z,50.35
2022-08-03T06:47:09.182Z,50.95
2022-08-03T06:48:09.122Z,51.32
2022-08-03T06:49:09.169Z,50.63
2022-08-03T06:50:12.864Z,50.33
2022-08-03T06:51:10.086Z,49.93
2022-08-03T06:52:09.071Z,50.43
2022-08-03T06:53:09.052Z,50.52
2022-08-03T06:54:10.048Z,49.83
2022-08-03T06:55:09.042Z,50.01
2022-08-03T06:56:09.018Z,50.10
2022-08-03T06:57:09.004Z,50.10
2022-08-03T06:58:09.002Z,50.10
2022-08-03T06:59:08.988Z,49.41
2022-08-03T07:00:12.503Z,49.88
2022-08-03T07:01:08.970Z,49.88
2022-08-03T07:02:08.953Z,49.38
2022-08-03T07:03:09.123Z,49.58
2022-08-03T07:04:08.903Z,49.29
2022-08-03T07:05:08.955Z,49.49
2022-08-03T07:06:08.893Z,49.88
2022-08-03T07:07:08.886Z,49.76
2022-08-03T07:08:08.880Z,49.46
2022-08-03T07:09:08.862Z,50.35
2022-08-03T07:10:08.878Z,50.26
2022-08-03T07:11:08.847Z,49.96
2022-08-03T07:12:08.816Z,49.46
2022-08-03T07:13:08.802Z,48.77
2022-08-03T07:14:08.808Z,47.95
2022-08-03T07:15:08.788Z,48.05
2022-08-03T07:16:09.762Z,48.14
2022-08-03T07:17:11.417Z,48.14
2022-08-03T07:18:08.740Z,48.02
2022-08-03T07:19:08.743Z,47.92
2022-08-03T07:20:08.737Z,47.92
2022-08-03T07:21:08.719Z,47.73
2022-08-03T07:22:08.675Z,47.53
2022-08-03T07:23:08.672Z,48.02
2022-08-03T07:24:08.665Z,47.83
2022-08-03T07:25:08.673Z,47.43
2022-08-03T07:26:08.652Z,47.73
2022-08-03T07:27:08.619Z,48.02
2022-08-03T07:28:08.605Z,47.92
2022-08-03T07:29:15.080Z,47.83
2022-08-03T07:30:09.599Z,48.90
2022-08-03T07:31:08.569Z,47.31
2022-08-03T07:32:08.559Z,46.91
2022-08-03T07:33:08.531Z,47.50
2022-08-03T07:34:08.538Z,47.28
2022-08-03T07:35:08.911Z,45.50
2022-08-03T07:36:09.500Z,45.40
2022-08-03T07:37:08.479Z,45.40
2022-08-03T07:38:08.474Z,45.40
2022-08-03T07:39:15.791Z,45.40
2022-08-03T07:40:09.498Z,45.50
2022-08-03T07:41:08.473Z,45.48
2022-08-03T07:42:08.410Z,45.48
2022-08-03T07:43:08.411Z,44.89
2022-08-03T07:44:08.392Z,45.38
2022-08-03T07:45:08.439Z,45.18
2022-08-03T07:46:09.374Z,45.78
2022-08-03T07:47:08.357Z,46.05
2022-08-03T07:48:12.196Z,45.36
2022-08-03T07:49:08.439Z,45.06
2022-08-03T07:50:08.887Z,45.26
2022-08-03T07:51:08.322Z,45.56
2022-08-03T07:52:08.283Z,45.45
2022-08-03T07:53:08.280Z,44.96
2022-08-03T07:54:08.269Z,43.97
2022-08-03T07:55:08.252Z,44.27
2022-08-03T07:56:11.458Z,44.17
2022-08-03T07:57:08.220Z,44.35
2022-08-03T07:58:08.215Z,44.15
2022-08-03T07:59:08.209Z,43.75
2022-08-03T08:00:08.185Z,43.85
2022-08-03T08:01:08.280Z,43.85
2022-08-03T08:02:08.150Z,43.65
2022-08-03T08:03:08.148Z,44.45
2022-08-03T08:04:08.131Z,44.35
2022-08-03T08:05:08.125Z,44.54
2022-08-03T08:06:08.131Z,45.14
2022-08-03T08:07:08.089Z,44.74
2022-08-03T08:08:08.180Z,43.73
2022-08-03T08:09:08.071Z,43.63
2022-08-03T08:10:08.123Z,43.21
2022-08-03T08:11:08.130Z,42.62
2022-08-03T08:12:15.363Z,42.72
2022-08-03T08:13:09.036Z,42.40
2022-08-03T08:14:08.008Z,42.60
2022-08-03T08:15:07.991Z,42.50
2022-08-03T08:16:07.982Z,42.01
2022-08-03T08:17:07.970Z,41.71
2022-08-03T08:18:07.954Z,42.01
2022-08-03T08:19:07.942Z,42.40
2022-08-03T08:20:07.925Z,42.11
2022-08-03T08:21:08.692Z,42.40
2022-08-03T08:22:07.943Z,42.38
2022-08-03T08:23:19.922Z,42.29
2022-08-03T08:24:13.380Z,41.89
2022-08-03T08:25:08.871Z,41.49
2022-08-03T08:26:07.873Z,41.49
2022-08-03T08:27:07.842Z,41.39
2022-08-03T08:28:22.275Z,41.39
2022-08-03T08:29:08.810Z,41.10
2022-08-03T08:30:11.485Z,41.20
2022-08-03T08:31:07.810Z,41.49
2022-08-03T08:32:07.771Z,40.80
2022-08-03T08:33:08.698Z,41.39
2022-08-03T08:34:08.761Z,40.90
2022-08-03T08:35:07.730Z,40.90
2022-08-03T08:36:10.894Z,41.00
2022-08-03T08:37:08.738Z,40.41
2022-08-03T08:38:07.690Z,40.09
2022-08-03T08:39:07.686Z,40.88
2022-08-03T08:40:07.669Z,40.29
2022-08-03T08:41:07.677Z,40.39
2022-08-03T08:42:07.641Z,40.56
2022-08-03T08:43:07.750Z,41.06
2022-08-03T08:44:07.610Z,41.46
2022-08-03T08:45:07.628Z,41.16
2022-08-03T08:46:07.591Z,41.36
2022-08-03T08:47:07.589Z,41.16
2022-08-03T08:48:08.508Z,40.07
2022-08-03T08:49:07.569Z,40.07
2022-08-03T08:50:27.360Z,39.38
2022-08-03T08:51:08.529Z,39.09
2022-08-03T08:52:25.276Z,39.97
2022-08-03T08:53:09.728Z,40.27
2022-08-03T08:54:07.481Z,39.46
2022-08-03T08:55:07.484Z,39.36
2022-08-03T08:56:07.451Z,39.06
2022-08-03T08:57:21.320Z,39.94
2022-08-03T08:58:08.470Z,39.73
2022-08-03T08:59:07.425Z,39.25
2022-08-03T09:00:07.408Z,39.64
2022-08-03T09:01:07.533Z,40.03
2022-08-03T09:02:07.401Z,40.23
2022-08-03T09:03:07.386Z,39.64
2022-08-03T09:04:07.378Z,40.53
2022-08-03T09:05:07.803Z,39.94
2022-08-03T09:06:07.330Z,40.43
2022-08-03T09:07:19.731Z,41.22
2022-08-03T09:08:08.299Z,41.12
2022-08-03T09:09:07.315Z,40.43
2022-08-03T09:10:13.076Z,39.94
2022-08-03T09:11:08.298Z,39.25
2022-08-03T09:12:36.487Z,38.95
2022-08-03T09:13:08.271Z,39.25
2022-08-03T09:14:07.231Z,39.84
2022-08-03T09:15:16.972Z,39.25
2022-08-03T09:16:08.226Z,39.54
2022-08-03T09:17:07.196Z,40.23
2022-08-03T09:18:07.209Z,39.84
2022-08-03T09:19:07.160Z,39.44
2022-08-03T09:20:07.147Z,39.62
2022-08-03T09:21:29.693Z,40.51
2022-08-03T09:22:08.174Z,39.72
2022-08-03T09:23:33.424Z,39.92
2022-08-03T09:24:16.454Z,40.41
2022-08-03T09:25:23.848Z,39.89
2022-08-03T09:26:09.143Z,39.31
2022-08-03T09:27:07.062Z,39.42
2022-08-03T09:28:07.102Z,39.12
2022-08-03T09:29:13.260Z,39.12
2022-08-03T09:30:33.348Z,38.83
2022-08-03T09:31:08.030Z,38.54
2022-08-03T09:32:07.026Z,39.03
2022-08-03T09:33:08.419Z,39.23
2022-08-03T09:34:07.002Z,38.73
2022-08-03T09:35:07.425Z,38.83
2022-08-03T09:36:06.971Z,38.93
2022-08-03T09:37:06.943Z,38.93
2022-08-03T09:38:13.630Z,38.62
2022-08-03T09:39:07.941Z,38.51
2022-08-03T09:40:06.913Z,38.62
2022-08-03T09:41:06.907Z,39.20
2022-08-03T09:42:08.309Z,38.62
2022-08-03T09:43:06.884Z,38.81
2022-08-03T09:44:06.904Z,38.89
2022-08-03T09:45:06.855Z,37.91
2022-08-03T09:46:06.840Z,38.02
2022-08-03T09:47:06.813Z,38.22
2022-08-03T09:48:06.811Z,38.02
2022-08-03T09:49:06.846Z,38.40
2022-08-03T09:50:06.792Z,39.39
2022-08-03T09:51:12.991Z,38.60
2022-08-03T09:52:32.259Z,38.40
2022-08-03T09:53:07.745Z,38.40
2022-08-03T09:54:15.106Z,38.60
2022-08-03T09:55:07.727Z,38.10
2022-08-03T09:56:36.451Z,38.01
2022-08-03T09:57:07.690Z,38.30
2022-08-03T09:58:06.686Z,38.20
2022-08-03T09:59:07.310Z,38.70
2022-08-03T10:00:08.411Z,38.60
2022-08-03T10:01:06.669Z,38.20
2022-08-03T10:02:06.638Z,38.01
2022-08-03T10:03:06.611Z,37.99
2022-08-03T10:04:06.594Z,37.49
2022-08-03T10:05:06.596Z,37.79
2022-08-03T10:06:06.588Z,37.89
2022-08-03T10:07:06.564Z,37.99
2022-08-03T10:08:06.547Z,37.89
2022-08-03T10:09:06.532Z,38.18
2022-08-03T10:10:29.878Z,37.79
2022-08-03T10:11:07.544Z,37.20
2022-08-03T10:12:06.499Z,37.79
2022-08-03T10:13:06.495Z,38.18
2022-08-03T10:14:06.488Z,37.69
2022-08-03T10:15:06.477Z,37.10
2022-08-03T10:16:21.275Z,37.48
2022-08-03T10:17:07.432Z,36.79
2022-08-03T10:18:06.442Z,37.08
2022-08-03T10:19:06.408Z,36.88
2022-08-03T10:20:06.408Z,37.38
2022-08-03T10:21:06.393Z,37.28
2022-08-03T10:22:06.379Z,37.28
2022-08-03T10:23:06.362Z,37.38
2022-08-03T10:24:06.336Z,37.77
2022-08-03T10:25:06.333Z,37.85
2022-08-03T10:26:06.331Z,37.16
2022-08-03T10:27:06.338Z,36.10
2022-08-03T10:28:06.304Z,36.69
2022-08-03T10:29:06.280Z,37.48
2022-08-03T10:30:07.300Z,37.67
2022-08-03T10:31:06.303Z,37.77
2022-08-03T10:32:06.239Z,36.99
2022-08-03T10:33:12.312Z,37.36
2022-08-03T10:34:07.222Z,36.97
2022-08-03T10:35:19.086Z,36.67
2022-08-03T10:36:07.236Z,36.28
2022-08-03T10:37:06.181Z,36.18
2022-08-03T10:38:06.172Z,36.59
2022-08-03T10:39:16.030Z,36.69
2022-08-03T10:40:07.141Z,36.40
2022-08-03T10:41:06.133Z,36.49
2022-08-03T10:42:06.123Z,36.77
2022-08-03T10:43:07.103Z,36.47
2022-08-03T10:44:06.094Z,36.97
2022-08-03T10:45:06.072Z,36.18
2022-08-03T10:46:06.074Z,36.18
2022-08-03T10:47:06.064Z,36.07
2022-08-03T10:48:06.041Z,36.36
2022-08-03T10:49:06.163Z,37.07
2022-08-03T10:50:06.017Z,36.47
2022-08-03T10:51:06.015Z,36.16
2022-08-03T10:52:12.988Z,37.15
2022-08-03T10:53:06.994Z,35.67
2022-08-03T10:54:05.967Z,35.67
2022-08-03T10:55:07.525Z,36.26
2022-08-03T10:56:05.944Z,36.05
2022-08-03T10:57:14.169Z,36.05
2022-08-03T10:58:11.097Z,35.75
2022-08-03T10:59:05.895Z,36.15
2022-08-03T11:00:05.893Z,35.95
2022-08-03T11:01:05.975Z,35.85
2022-08-03T11:02:05.865Z,35.46
2022-08-03T11:03:05.883Z,35.16
2022-08-03T11:04:10.202Z,35.26
2022-08-03T11:05:06.814Z,35.67
2022-08-03T11:06:05.815Z,36.75
2022-08-03T11:07:05.806Z,36.07
2022-08-03T11:08:05.805Z,35.87
2022-08-03T11:09:05.773Z,36.46
2022-08-03T11:10:10.432Z,36.07
2022-08-03T11:11:05.754Z,36.26
2022-08-03T11:12:06.682Z,36.05
2022-08-03T11:13:05.728Z,36.05
2022-08-03T11:14:05.727Z,36.15
2022-08-03T11:15:05.764Z,35.16
2022-08-03T11:16:07.770Z,35.75
2022-08-03T11:17:05.674Z,36.24
2022-08-03T11:18:05.663Z,35.44
2022-08-03T11:19:05.645Z,35.64
2022-08-03T11:20:12.673Z,35.93
2022-08-03T11:21:05.624Z,36.01
2022-08-03T11:22:05.615Z,36.11
2022-08-03T11:23:05.595Z,36.11
2022-08-03T11:24:06.763Z,35.72
2022-08-03T11:25:05.590Z,35.42
2022-08-03T11:26:05.587Z,36.30
2022-08-03T11:27:05.986Z,35.52
2022-08-03T11:28:05.592Z,35.42
2022-08-03T11:29:05.512Z,36.01
2022-08-03T11:30:05.505Z,35.52
2022-08-03T11:31:05.485Z,35.42
2022-08-03T11:32:05.475Z,35.13
2022-08-03T11:33:05.454Z,35.23
2022-08-03T11:34:05.454Z,35.62
2022-08-03T11:35:05.435Z,35.13
2022-08-03T11:36:05.436Z,35.52
2022-08-03T11:37:05.472Z,34.83
2022-08-03T11:38:05.733Z,34.93
2022-08-03T11:39:05.433Z,34.64
2022-08-03T11:40:05.424Z,34.85
2022-08-03T11:41:05.412Z,35.93
2022-08-03T11:42:05.354Z,35.42
2022-08-03T11:43:05.339Z,36.01
2022-08-03T11:44:05.323Z,35.72
2022-08-03T11:45:06.208Z,34.83
2022-08-03T11:46:05.311Z,35.52
2022-08-03T11:47:05.290Z,35.62
2022-08-03T11:48:05.284Z,35.62
2022-08-03T11:49:09.285Z,35.03
2022-08-03T11:50:06.406Z,34.93
2022-08-03T11:51:05.237Z,35.52
2022-08-03T11:52:05.225Z,35.52
2022-08-03T11:53:05.234Z,35.42
2022-08-03T11:54:05.203Z,36.11
2022-08-03T11:55:05.303Z,36.09
2022-08-03T11:56:05.185Z,35.89
2022-08-03T11:57:06.165Z,35.70
2022-08-03T11:59:10.883Z,35.11
2022-08-03T11:59:18.662Z,35.10
2022-08-03T12:00:06.125Z,35.02
2022-08-03T12:01:05.114Z,35.29
2022-08-03T12:02:05.109Z,35.97
2022-08-03T12:03:05.180Z,35.00
2022-08-03T12:04:05.066Z,34.90
2022-08-03T12:05:05.067Z,34.70
2022-08-03T12:06:05.060Z,34.90
2022-08-03T12:07:05.047Z,34.51
2022-08-03T12:08:06.821Z,34.31
2022-08-03T12:09:05.015Z,34.23
2022-08-03T12:10:05.016Z,34.72
2022-08-03T12:11:04.977Z,35.41
2022-08-03T12:12:05.036Z,35.31
2022-08-03T12:13:04.955Z,35.10
2022-08-03T12:14:50.338Z,34.31
2022-08-03T12:15:05.934Z,34.90
2022-08-03T12:16:04.945Z,34.11
2022-08-03T12:17:04.927Z,34.03
2022-08-03T12:18:04.957Z,34.33
2022-08-03T12:19:05.876Z,34.54
2022-08-03T12:20:04.876Z,34.93
2022-08-03T12:21:04.848Z,35.23
2022-08-03T12:22:04.847Z,35.89
2022-08-03T12:23:04.850Z,35.70
2022-08-03T12:24:04.868Z,35.21
2022-08-03T12:25:04.808Z,35.11
2022-08-03T12:26:04.798Z,35.31
2022-08-03T12:27:04.782Z,35.21
2022-08-03T12:28:04.767Z,35.19
2022-08-03T12:29:05.757Z,37.25
2022-08-03T12:30:04.755Z,35.78
2022-08-03T12:31:04.737Z,35.00
2022-08-03T12:32:04.758Z,34.90
2022-08-03T12:33:04.708Z,34.41
2022-08-03T12:34:04.705Z,35.68
2022-08-03T12:35:04.700Z,35.39
2022-08-03T12:36:04.668Z,35.10
2022-08-03T12:37:04.666Z,35.88
2022-08-03T12:38:05.649Z,34.70
2022-08-03T12:39:04.633Z,34.98
2022-08-03T12:40:10.112Z,35.27
2022-08-03T12:41:05.627Z,34.69
2022-08-03T12:42:04.599Z,34.78
2022-08-03T12:43:04.591Z,34.39
2022-08-03T12:44:04.586Z,34.00
2022-08-03T12:45:04.581Z,34.69
2022-08-03T12:46:04.563Z,34.98
2022-08-03T12:47:04.536Z,35.08
2022-08-03T12:48:04.528Z,34.86
2022-08-03T12:49:04.557Z,34.86
2022-08-03T12:50:04.497Z,34.77
2022-08-03T12:51:04.489Z,34.78
2022-08-03T12:52:07.634Z,34.96
2022-08-03T12:53:04.453Z,34.96
2022-08-03T12:54:04.483Z,35.16